sensor_id;sensor_type;location;lat;lon;timestamp;P1;durP1;ratioP1;P2;durP2;ratioP2
42018;SDS011;27703;51.980;5.848;2023-05-10T00:01:27;19.48;;;13.52;;
42018;SDS011;27703;51.980;5.848;2023-05-10T00:03:52;19.50;;;13.32;;
42018;SDS011;27703;51.980;5.848;2023-05-10T00:06:18;21.80;;;14.82;;
42018;SDS011;27703;51.980;5.848;2023-05-10T00:08:44;20.98;;;14.15;;
42018;SDS011;27703;51.980;5.848;2023-05-10T00:11:10;25.52;;;15.25;;
42018;SDS011;27703;51.980;5.848;2023-05-10T00:13:36;22.95;;;15.63;;
42018;SDS011;27703;51.980;5.848;2023-05-10T00:16:01;28.52;;;18.00;;
42018;SDS011;27703;51.980;5.848;2023-05-10T00:18:27;27.50;;;17.20;;
42018;SDS011;27703;51.980;5.848;2023-05-10T00:20:53;36.25;;;22.63;;
42018;SDS011;27703;51.980;5.848;2023-05-10T00:23:18;31.40;;;20.02;;
42018;SDS011;27703;51.980;5.848;2023-05-10T00:25:44;40.92;;;23.88;;
42018;SDS011;27703;51.980;5.848;2023-05-10T00:28:09;37.88;;;25.00;;
42018;SDS011;27703;51.980;5.848;2023-05-10T00:30:35;42.53;;;25.85;;
42018;SDS011;27703;51.980;5.848;2023-05-10T00:33:00;38.17;;;23.65;;
42018;SDS011;27703;51.980;5.848;2023-05-10T00:35:26;41.90;;;26.35;;
42018;SDS011;27703;51.980;5.848;2023-05-10T00:37:52;43.13;;;27.17;;
42018;SDS011;27703;51.980;5.848;2023-05-10T00:40:17;45.47;;;27.85;;
42018;SDS011;27703;51.980;5.848;2023-05-10T00:42:43;41.45;;;27.15;;
42018;SDS011;27703;51.980;5.848;2023-05-10T00:45:08;40.28;;;26.38;;
42018;SDS011;27703;51.980;5.848;2023-05-10T00:47:34;42.28;;;26.25;;
42018;SDS011;27703;51.980;5.848;2023-05-10T00:50:00;43.72;;;27.00;;
42018;SDS011;27703;51.980;5.848;2023-05-10T00:52:26;45.40;;;27.38;;
42018;SDS011;27703;51.980;5.848;2023-05-10T00:54:53;43.80;;;27.33;;
42018;SDS011;27703;51.980;5.848;2023-05-10T00:57:19;40.35;;;25.27;;
42018;SDS011;27703;51.980;5.848;2023-05-10T00:59:46;38.08;;;23.77;;
42018;SDS011;27703;51.980;5.848;2023-05-10T01:02:11;42.95;;;26.65;;
42018;SDS011;27703;51.980;5.848;2023-05-10T01:04:38;43.72;;;26.63;;
42018;SDS011;27703;51.980;5.848;2023-05-10T01:07:04;47.35;;;27.92;;
42018;SDS011;27703;51.980;5.848;2023-05-10T01:09:30;46.45;;;25.88;;
42018;SDS011;27703;51.980;5.848;2023-05-10T01:11:56;40.33;;;24.33;;
42018;SDS011;27703;51.980;5.848;2023-05-10T01:14:22;42.15;;;25.17;;
42018;SDS011;27703;51.980;5.848;2023-05-10T01:16:49;45.17;;;25.48;;
42018;SDS011;27703;51.980;5.848;2023-05-10T01:19:22;39.92;;;24.10;;
42018;SDS011;27703;51.980;5.848;2023-05-10T01:22:02;42.83;;;26.08;;
42018;SDS011;27703;51.980;5.848;2023-05-10T01:27:25;40.67;;;24.30;;
42018;SDS011;27703;51.980;5.848;2023-05-10T01:33:01;44.63;;;25.75;;
42018;SDS011;27703;51.980;5.848;2023-05-10T01:35:36;51.05;;;28.35;;
42018;SDS011;27703;51.980;5.848;2023-05-10T01:41:01;60.22;;;33.20;;
42018;SDS011;27703;51.980;5.848;2023-05-10T01:46:38;52.13;;;30.73;;
42018;SDS011;27703;51.980;5.848;2023-05-10T01:49:09;49.60;;;27.77;;
42018;SDS011;27703;51.980;5.848;2023-05-10T01:51:41;53.53;;;28.52;;
42018;SDS011;27703;51.980;5.848;2023-05-10T01:54:11;57.33;;;30.77;;
42018;SDS011;27703;51.980;5.848;2023-05-10T01:56:38;51.60;;;29.35;;
42018;SDS011;27703;51.980;5.848;2023-05-10T01:59:06;58.08;;;31.85;;
42018;SDS011;27703;51.980;5.848;2023-05-10T02:04:03;50.92;;;26.67;;
42018;SDS011;27703;51.980;5.848;2023-05-10T02:06:31;43.60;;;25.88;;
42018;SDS011;27703;51.980;5.848;2023-05-10T02:08:58;41.05;;;22.58;;
42018;SDS011;27703;51.980;5.848;2023-05-10T02:11:26;41.65;;;22.60;;
42018;SDS011;27703;51.980;5.848;2023-05-10T02:13:54;43.20;;;23.70;;
42018;SDS011;27703;51.980;5.848;2023-05-10T02:16:21;39.33;;;21.83;;
42018;SDS011;27703;51.980;5.848;2023-05-10T02:18:49;46.72;;;25.67;;
42018;SDS011;27703;51.980;5.848;2023-05-10T02:21:16;47.65;;;24.58;;
42018;SDS011;27703;51.980;5.848;2023-05-10T02:23:43;55.90;;;28.35;;
42018;SDS011;27703;51.980;5.848;2023-05-10T02:26:11;59.53;;;30.75;;
42018;SDS011;27703;51.980;5.848;2023-05-10T02:28:38;61.35;;;30.92;;
42018;SDS011;27703;51.980;5.848;2023-05-10T02:31:06;59.53;;;30.92;;
42018;SDS011;27703;51.980;5.848;2023-05-10T02:33:32;60.05;;;31.52;;
42018;SDS011;27703;51.980;5.848;2023-05-10T02:35:59;62.97;;;31.73;;
42018;SDS011;27703;51.980;5.848;2023-05-10T02:38:27;61.28;;;30.48;;
42018;SDS011;27703;51.980;5.848;2023-05-10T02:40:54;74.85;;;35.13;;
42018;SDS011;27703;51.980;5.848;2023-05-10T02:43:21;65.75;;;31.45;;
42018;SDS011;27703;51.980;5.848;2023-05-10T02:45:48;69.60;;;32.53;;
42018;SDS011;27703;51.980;5.848;2023-05-10T02:48:14;70.60;;;33.58;;
42018;SDS011;27703;51.980;5.848;2023-05-10T02:50:41;64.20;;;33.97;;
42018;SDS011;27703;51.980;5.848;2023-05-10T02:53:10;62.90;;;33.40;;
42018;SDS011;27703;51.980;5.848;2023-05-10T02:55:40;75.00;;;35.00;;
42018;SDS011;27703;51.980;5.848;2023-05-10T02:58:07;72.22;;;36.13;;
42018;SDS011;27703;51.980;5.848;2023-05-10T03:00:32;69.53;;;33.95;;
42018;SDS011;27703;51.980;5.848;2023-05-10T03:02:58;65.35;;;33.65;;
42018;SDS011;27703;51.980;5.848;2023-05-10T03:05:24;69.22;;;35.25;;
42018;SDS011;27703;51.980;5.848;2023-05-10T03:07:49;70.10;;;34.53;;
42018;SDS011;27703;51.980;5.848;2023-05-10T03:10:16;67.00;;;33.53;;
42018;SDS011;27703;51.980;5.848;2023-05-10T03:18:23;72.05;;;36.00;;
42018;SDS011;27703;51.980;5.848;2023-05-10T03:20:59;65.55;;;33.92;;
42018;SDS011;27703;51.980;5.848;2023-05-10T03:23:33;66.88;;;36.42;;
42018;SDS011;27703;51.980;5.848;2023-05-10T03:26:03;73.75;;;36.80;;
42018;SDS011;27703;51.980;5.848;2023-05-10T03:28:30;74.72;;;36.30;;
42018;SDS011;27703;51.980;5.848;2023-05-10T03:30:58;72.45;;;36.50;;
42018;SDS011;27703;51.980;5.848;2023-05-10T03:33:24;76.18;;;38.72;;
42018;SDS011;27703;51.980;5.848;2023-05-10T03:35:50;71.82;;;35.97;;
42018;SDS011;27703;51.980;5.848;2023-05-10T03:38:16;64.50;;;34.83;;
42018;SDS011;27703;51.980;5.848;2023-05-10T03:40:41;76.55;;;39.00;;
42018;SDS011;27703;51.980;5.848;2023-05-10T03:43:07;72.22;;;38.10;;
42018;SDS011;27703;51.980;5.848;2023-05-10T03:45:32;68.30;;;36.13;;
42018;SDS011;27703;51.980;5.848;2023-05-10T03:47:58;78.68;;;37.97;;
42018;SDS011;27703;51.980;5.848;2023-05-10T03:50:24;70.15;;;38.90;;
42018;SDS011;27703;51.980;5.848;2023-05-10T03:52:49;76.05;;;38.45;;
42018;SDS011;27703;51.980;5.848;2023-05-10T03:55:15;74.88;;;38.83;;
42018;SDS011;27703;51.980;5.848;2023-05-10T03:57:41;68.40;;;37.95;;
42018;SDS011;27703;51.980;5.848;2023-05-10T04:00:07;61.85;;;34.15;;
42018;SDS011;27703;51.980;5.848;2023-05-10T04:02:33;57.75;;;33.50;;
42018;SDS011;27703;51.980;5.848;2023-05-10T04:04:59;59.88;;;31.33;;
42018;SDS011;27703;51.980;5.848;2023-05-10T04:07:24;55.03;;;27.83;;
42018;SDS011;27703;51.980;5.848;2023-05-10T04:09:50;59.10;;;30.50;;
42018;SDS011;27703;51.980;5.848;2023-05-10T04:12:15;49.28;;;27.25;;
42018;SDS011;27703;51.980;5.848;2023-05-10T04:14:41;53.25;;;27.88;;
42018;SDS011;27703;51.980;5.848;2023-05-10T04:17:07;60.42;;;32.47;;
42018;SDS011;27703;51.980;5.848;2023-05-10T04:19:32;53.42;;;28.65;;
42018;SDS011;27703;51.980;5.848;2023-05-10T04:21:58;58.58;;;31.52;;
42018;SDS011;27703;51.980;5.848;2023-05-10T04:24:24;59.28;;;29.50;;
42018;SDS011;27703;51.980;5.848;2023-05-10T04:26:49;59.58;;;31.48;;
42018;SDS011;27703;51.980;5.848;2023-05-10T04:29:15;62.00;;;29.67;;
42018;SDS011;27703;51.980;5.848;2023-05-10T04:31:41;49.20;;;29.08;;
42018;SDS011;27703;51.980;5.848;2023-05-10T04:34:06;50.50;;;26.67;;
42018;SDS011;27703;51.980;5.848;2023-05-10T04:36:32;47.00;;;24.67;;
42018;SDS011;27703;51.980;5.848;2023-05-10T04:39:00;51.55;;;26.75;;
42018;SDS011;27703;51.980;5.848;2023-05-10T04:41:25;52.85;;;28.55;;
42018;SDS011;27703;51.980;5.848;2023-05-10T04:43:51;46.42;;;24.42;;
42018;SDS011;27703;51.980;5.848;2023-05-10T04:46:16;50.97;;;26.20;;
42018;SDS011;27703;51.980;5.848;2023-05-10T04:48:42;47.00;;;23.45;;
42018;SDS011;27703;51.980;5.848;2023-05-10T04:51:07;52.10;;;25.70;;
42018;SDS011;27703;51.980;5.848;2023-05-10T04:53:33;51.97;;;26.35;;
42018;SDS011;27703;51.980;5.848;2023-05-10T04:55:59;49.63;;;25.48;;
42018;SDS011;27703;51.980;5.848;2023-05-10T04:58:24;50.25;;;25.83;;
42018;SDS011;27703;51.980;5.848;2023-05-10T05:00:50;50.90;;;26.05;;
42018;SDS011;27703;51.980;5.848;2023-05-10T05:03:15;52.83;;;24.58;;
42018;SDS011;27703;51.980;5.848;2023-05-10T05:05:41;45.88;;;24.45;;
42018;SDS011;27703;51.980;5.848;2023-05-10T05:08:07;45.28;;;24.95;;
42018;SDS011;27703;51.980;5.848;2023-05-10T05:10:32;46.95;;;23.58;;
42018;SDS011;27703;51.980;5.848;2023-05-10T05:12:58;45.85;;;25.48;;
42018;SDS011;27703;51.980;5.848;2023-05-10T05:15:23;45.70;;;26.45;;
42018;SDS011;27703;51.980;5.848;2023-05-10T05:17:49;53.75;;;27.83;;
42018;SDS011;27703;51.980;5.848;2023-05-10T05:20:14;49.13;;;27.25;;
42018;SDS011;27703;51.980;5.848;2023-05-10T05:22:40;49.42;;;25.55;;
42018;SDS011;27703;51.980;5.848;2023-05-10T05:25:05;54.05;;;27.75;;
42018;SDS011;27703;51.980;5.848;2023-05-10T05:27:31;47.30;;;25.90;;
42018;SDS011;27703;51.980;5.848;2023-05-10T05:29:57;47.47;;;24.83;;
42018;SDS011;27703;51.980;5.848;2023-05-10T05:32:23;59.20;;;28.15;;
42018;SDS011;27703;51.980;5.848;2023-05-10T05:34:49;50.60;;;25.92;;
42018;SDS011;27703;51.980;5.848;2023-05-10T05:37:15;52.42;;;28.33;;
42018;SDS011;27703;51.980;5.848;2023-05-10T05:39:42;48.28;;;26.15;;
42018;SDS011;27703;51.980;5.848;2023-05-10T05:42:09;49.35;;;25.83;;
42018;SDS011;27703;51.980;5.848;2023-05-10T05:44:35;50.20;;;24.17;;
42018;SDS011;27703;51.980;5.848;2023-05-10T05:47:00;41.97;;;22.45;;
42018;SDS011;27703;51.980;5.848;2023-05-10T05:49:26;46.40;;;25.52;;
42018;SDS011;27703;51.980;5.848;2023-05-10T05:51:51;48.35;;;26.13;;
42018;SDS011;27703;51.980;5.848;2023-05-10T05:54:17;49.40;;;25.52;;
42018;SDS011;27703;51.980;5.848;2023-05-10T05:56:42;47.20;;;23.88;;
42018;SDS011;27703;51.980;5.848;2023-05-10T05:59:09;54.17;;;24.75;;
42018;SDS011;27703;51.980;5.848;2023-05-10T06:01:35;54.20;;;24.38;;
42018;SDS011;27703;51.980;5.848;2023-05-10T06:04:00;50.25;;;24.50;;
42018;SDS011;27703;51.980;5.848;2023-05-10T06:06:26;53.30;;;26.10;;
42018;SDS011;27703;51.980;5.848;2023-05-10T06:08:53;51.13;;;25.55;;
42018;SDS011;27703;51.980;5.848;2023-05-10T06:11:18;57.70;;;27.10;;
42018;SDS011;27703;51.980;5.848;2023-05-10T06:13:45;54.38;;;27.83;;
42018;SDS011;27703;51.980;5.848;2023-05-10T06:16:11;51.47;;;26.80;;
42018;SDS011;27703;51.980;5.848;2023-05-10T06:18:37;53.83;;;26.23;;
42018;SDS011;27703;51.980;5.848;2023-05-10T06:21:02;58.05;;;27.35;;
42018;SDS011;27703;51.980;5.848;2023-05-10T06:23:28;53.78;;;25.83;;
42018;SDS011;27703;51.980;5.848;2023-05-10T06:25:53;53.25;;;26.42;;
42018;SDS011;27703;51.980;5.848;2023-05-10T06:28:19;49.25;;;23.55;;
42018;SDS011;27703;51.980;5.848;2023-05-10T06:30:45;57.75;;;27.98;;
42018;SDS011;27703;51.980;5.848;2023-05-10T06:33:10;52.85;;;26.35;;
42018;SDS011;27703;51.980;5.848;2023-05-10T06:35:36;56.70;;;27.48;;
42018;SDS011;27703;51.980;5.848;2023-05-10T06:38:02;52.58;;;25.60;;
42018;SDS011;27703;51.980;5.848;2023-05-10T06:40:27;51.95;;;26.45;;
42018;SDS011;27703;51.980;5.848;2023-05-10T06:42:53;50.03;;;25.83;;
42018;SDS011;27703;51.980;5.848;2023-05-10T06:45:18;45.88;;;22.80;;
42018;SDS011;27703;51.980;5.848;2023-05-10T06:47:44;54.88;;;25.40;;
42018;SDS011;27703;51.980;5.848;2023-05-10T06:50:10;44.25;;;23.77;;
42018;SDS011;27703;51.980;5.848;2023-05-10T06:52:36;46.67;;;25.08;;
42018;SDS011;27703;51.980;5.848;2023-05-10T06:55:05;43.80;;;23.05;;
42018;SDS011;27703;51.980;5.848;2023-05-10T06:57:31;52.13;;;28.02;;
42018;SDS011;27703;51.980;5.848;2023-05-10T06:59:57;52.40;;;27.63;;
42018;SDS011;27703;51.980;5.848;2023-05-10T07:02:26;46.90;;;27.38;;
42018;SDS011;27703;51.980;5.848;2023-05-10T07:04:51;48.75;;;27.25;;
42018;SDS011;27703;51.980;5.848;2023-05-10T07:07:17;54.85;;;28.55;;
42018;SDS011;27703;51.980;5.848;2023-05-10T07:09:43;52.65;;;27.33;;
42018;SDS011;27703;51.980;5.848;2023-05-10T07:12:09;49.90;;;25.75;;
42018;SDS011;27703;51.980;5.848;2023-05-10T07:14:36;49.90;;;26.10;;
42018;SDS011;27703;51.980;5.848;2023-05-10T07:17:02;50.63;;;27.20;;
42018;SDS011;27703;51.980;5.848;2023-05-10T07:19:27;54.22;;;28.00;;
42018;SDS011;27703;51.980;5.848;2023-05-10T07:21:54;53.95;;;28.13;;
42018;SDS011;27703;51.980;5.848;2023-05-10T07:24:20;63.78;;;31.75;;
42018;SDS011;27703;51.980;5.848;2023-05-10T07:26:45;60.75;;;29.90;;
42018;SDS011;27703;51.980;5.848;2023-05-10T07:29:11;60.90;;;26.65;;
42018;SDS011;27703;51.980;5.848;2023-05-10T07:31:36;57.60;;;28.65;;
42018;SDS011;27703;51.980;5.848;2023-05-10T07:34:02;53.20;;;26.42;;
42018;SDS011;27703;51.980;5.848;2023-05-10T07:36:28;51.97;;;27.15;;
42018;SDS011;27703;51.980;5.848;2023-05-10T07:38:53;52.92;;;26.25;;
42018;SDS011;27703;51.980;5.848;2023-05-10T07:41:19;54.50;;;27.73;;
42018;SDS011;27703;51.980;5.848;2023-05-10T07:43:46;52.65;;;25.90;;
42018;SDS011;27703;51.980;5.848;2023-05-10T07:46:11;55.63;;;26.05;;
42018;SDS011;27703;51.980;5.848;2023-05-10T07:48:37;45.85;;;23.42;;
42018;SDS011;27703;51.980;5.848;2023-05-10T07:51:02;39.33;;;21.27;;
42018;SDS011;27703;51.980;5.848;2023-05-10T07:53:28;49.53;;;26.17;;
42018;SDS011;27703;51.980;5.848;2023-05-10T07:55:54;54.00;;;26.40;;
42018;SDS011;27703;51.980;5.848;2023-05-10T07:58:23;46.08;;;24.10;;
42018;SDS011;27703;51.980;5.848;2023-05-10T08:00:49;53.22;;;25.67;;
42018;SDS011;27703;51.980;5.848;2023-05-10T08:03:14;49.47;;;25.20;;
42018;SDS011;27703;51.980;5.848;2023-05-10T08:05:40;49.72;;;26.50;;
42018;SDS011;27703;51.980;5.848;2023-05-10T08:08:06;49.17;;;24.63;;
42018;SDS011;27703;51.980;5.848;2023-05-10T08:10:32;48.92;;;24.98;;
42018;SDS011;27703;51.980;5.848;2023-05-10T08:12:57;45.80;;;23.73;;
42018;SDS011;27703;51.980;5.848;2023-05-10T08:15:23;45.78;;;24.73;;
42018;SDS011;27703;51.980;5.848;2023-05-10T08:17:50;45.17;;;24.23;;
42018;SDS011;27703;51.980;5.848;2023-05-10T08:20:16;47.88;;;26.02;;
42018;SDS011;27703;51.980;5.848;2023-05-10T08:22:44;43.00;;;23.83;;
42018;SDS011;27703;51.980;5.848;2023-05-10T08:25:10;44.00;;;23.85;;
42018;SDS011;27703;51.980;5.848;2023-05-10T08:27:36;43.50;;;22.77;;
42018;SDS011;27703;51.980;5.848;2023-05-10T08:30:01;45.40;;;23.35;;
42018;SDS011;27703;51.980;5.848;2023-05-10T08:32:27;41.90;;;21.58;;
42018;SDS011;27703;51.980;5.848;2023-05-10T08:34:53;37.90;;;21.70;;
42018;SDS011;27703;51.980;5.848;2023-05-10T08:37:19;44.33;;;22.75;;
42018;SDS011;27703;51.980;5.848;2023-05-10T08:39:45;35.08;;;19.52;;
42018;SDS011;27703;51.980;5.848;2023-05-10T08:42:12;33.25;;;19.50;;
42018;SDS011;27703;51.980;5.848;2023-05-10T08:44:44;30.25;;;17.45;;
42018;SDS011;27703;51.980;5.848;2023-05-10T08:47:13;31.27;;;18.30;;
42018;SDS011;27703;51.980;5.848;2023-05-10T08:49:41;30.25;;;17.27;;
42018;SDS011;27703;51.980;5.848;2023-05-10T08:52:09;23.90;;;16.35;;
42018;SDS011;27703;51.980;5.848;2023-05-10T08:54:37;24.40;;;16.33;;
42018;SDS011;27703;51.980;5.848;2023-05-10T08:57:03;24.20;;;15.38;;
42018;SDS011;27703;51.980;5.848;2023-05-10T08:59:29;24.63;;;14.77;;
42018;SDS011;27703;51.980;5.848;2023-05-10T09:01:58;23.65;;;13.73;;
42018;SDS011;27703;51.980;5.848;2023-05-10T09:04:24;24.42;;;14.15;;
42018;SDS011;27703;51.980;5.848;2023-05-10T09:06:51;20.00;;;11.70;;
42018;SDS011;27703;51.980;5.848;2023-05-10T09:09:17;17.55;;;10.90;;
42018;SDS011;27703;51.980;5.848;2023-05-10T09:11:43;20.20;;;11.43;;
42018;SDS011;27703;51.980;5.848;2023-05-10T09:14:09;14.05;;;8.60;;
42018;SDS011;27703;51.980;5.848;2023-05-10T09:16:37;11.75;;;8.18;;
42018;SDS011;27703;51.980;5.848;2023-05-10T09:19:03;10.35;;;6.72;;
42018;SDS011;27703;51.980;5.848;2023-05-10T09:21:28;12.75;;;7.57;;
42018;SDS011;27703;51.980;5.848;2023-05-10T09:23:55;11.25;;;6.57;;
42018;SDS011;27703;51.980;5.848;2023-05-10T09:26:24;9.80;;;6.53;;
42018;SDS011;27703;51.980;5.848;2023-05-10T09:28:53;9.63;;;7.03;;
42018;SDS011;27703;51.980;5.848;2023-05-10T09:31:20;11.38;;;7.43;;
42018;SDS011;27703;51.980;5.848;2023-05-10T09:33:49;12.52;;;7.30;;
42018;SDS011;27703;51.980;5.848;2023-05-10T09:36:15;9.80;;;6.15;;
42018;SDS011;27703;51.980;5.848;2023-05-10T09:38:44;11.02;;;6.00;;
42018;SDS011;27703;51.980;5.848;2023-05-10T09:41:17;6.85;;;4.93;;
42018;SDS011;27703;51.980;5.848;2023-05-10T09:43:47;9.75;;;5.40;;
42018;SDS011;27703;51.980;5.848;2023-05-10T09:46:13;9.60;;;4.85;;
42018;SDS011;27703;51.980;5.848;2023-05-10T09:48:44;10.82;;;5.90;;
42018;SDS011;27703;51.980;5.848;2023-05-10T09:51:18;9.82;;;6.05;;
42018;SDS011;27703;51.980;5.848;2023-05-10T09:54:11;5.87;;;4.17;;
42018;SDS011;27703;51.980;5.848;2023-05-10T09:56:38;5.88;;;4.18;;
42018;SDS011;27703;51.980;5.848;2023-05-10T09:59:05;6.28;;;4.45;;
42018;SDS011;27703;51.980;5.848;2023-05-10T10:01:33;6.72;;;4.10;;
42018;SDS011;27703;51.980;5.848;2023-05-10T10:04:01;6.03;;;3.70;;
42018;SDS011;27703;51.980;5.848;2023-05-10T10:06:29;5.63;;;3.67;;
42018;SDS011;27703;51.980;5.848;2023-05-10T10:08:54;7.57;;;4.45;;
42018;SDS011;27703;51.980;5.848;2023-05-10T10:11:21;5.68;;;3.72;;
42018;SDS011;27703;51.980;5.848;2023-05-10T10:13:48;8.32;;;4.75;;
42018;SDS011;27703;51.980;5.848;2023-05-10T10:16:14;7.38;;;4.80;;
42018;SDS011;27703;51.980;5.848;2023-05-10T10:18:40;7.68;;;4.80;;
42018;SDS011;27703;51.980;5.848;2023-05-10T10:21:07;6.85;;;4.55;;
42018;SDS011;27703;51.980;5.848;2023-05-10T10:23:35;10.57;;;5.43;;
42018;SDS011;27703;51.980;5.848;2023-05-10T10:26:02;9.82;;;4.85;;
42018;SDS011;27703;51.980;5.848;2023-05-10T10:28:40;8.55;;;6.32;;
42018;SDS011;27703;51.980;5.848;2023-05-10T10:31:26;6.20;;;4.05;;
42018;SDS011;27703;51.980;5.848;2023-05-10T10:34:00;7.72;;;4.57;;
42018;SDS011;27703;51.980;5.848;2023-05-10T10:36:46;11.00;;;5.68;;
42018;SDS011;27703;51.980;5.848;2023-05-10T10:39:13;12.05;;;7.25;;
42018;SDS011;27703;51.980;5.848;2023-05-10T10:41:49;11.32;;;5.68;;
42018;SDS011;27703;51.980;5.848;2023-05-10T10:49:43;11.63;;;6.97;;
42018;SDS011;27703;51.980;5.848;2023-05-10T10:52:12;9.32;;;6.40;;
42018;SDS011;27703;51.980;5.848;2023-05-10T10:55:11;11.05;;;6.97;;
42018;SDS011;27703;51.980;5.848;2023-05-10T11:00:19;10.85;;;6.50;;
42018;SDS011;27703;51.980;5.848;2023-05-10T11:02:53;8.85;;;5.55;;
42018;SDS011;27703;51.980;5.848;2023-05-10T11:05:25;12.40;;;7.45;;
42018;SDS011;27703;51.980;5.848;2023-05-10T11:07:51;10.10;;;7.05;;
42018;SDS011;27703;51.980;5.848;2023-05-10T11:10:21;8.52;;;5.97;;
42018;SDS011;27703;51.980;5.848;2023-05-10T11:13:00;9.90;;;6.90;;
42018;SDS011;27703;51.980;5.848;2023-05-10T11:15:30;8.75;;;6.07;;
42018;SDS011;27703;51.980;5.848;2023-05-10T11:17:57;10.57;;;5.68;;
42018;SDS011;27703;51.980;5.848;2023-05-10T11:20:23;8.52;;;5.38;;
42018;SDS011;27703;51.980;5.848;2023-05-10T11:23:00;7.10;;;5.03;;
42018;SDS011;27703;51.980;5.848;2023-05-10T11:25:44;7.95;;;6.00;;
42018;SDS011;27703;51.980;5.848;2023-05-10T11:28:12;9.90;;;6.45;;
42018;SDS011;27703;51.980;5.848;2023-05-10T11:30:38;6.75;;;4.60;;
42018;SDS011;27703;51.980;5.848;2023-05-10T11:33:05;7.38;;;4.90;;
42018;SDS011;27703;51.980;5.848;2023-05-10T11:35:36;7.00;;;5.35;;
42018;SDS011;27703;51.980;5.848;2023-05-10T11:38:06;7.30;;;5.50;;
42018;SDS011;27703;51.980;5.848;2023-05-10T11:40:32;5.97;;;4.00;;
42018;SDS011;27703;51.980;5.848;2023-05-10T11:42:58;7.20;;;4.82;;
42018;SDS011;27703;51.980;5.848;2023-05-10T11:45:24;6.78;;;4.68;;
42018;SDS011;27703;51.980;5.848;2023-05-10T11:47:51;10.30;;;6.38;;
42018;SDS011;27703;51.980;5.848;2023-05-10T11:50:17;9.38;;;5.07;;
42018;SDS011;27703;51.980;5.848;2023-05-10T11:52:43;9.18;;;6.10;;
42018;SDS011;27703;51.980;5.848;2023-05-10T11:55:08;6.63;;;4.95;;
42018;SDS011;27703;51.980;5.848;2023-05-10T11:57:34;8.55;;;5.30;;
42018;SDS011;27703;51.980;5.848;2023-05-10T12:00:00;5.68;;;3.92;;
42018;SDS011;27703;51.980;5.848;2023-05-10T12:02:28;7.90;;;4.75;;
42018;SDS011;27703;51.980;5.848;2023-05-10T12:04:54;6.45;;;4.65;;
42018;SDS011;27703;51.980;5.848;2023-05-10T12:07:21;7.55;;;4.93;;
42018;SDS011;27703;51.980;5.848;2023-05-10T12:12:38;6.30;;;4.38;;
42018;SDS011;27703;51.980;5.848;2023-05-10T12:15:12;7.38;;;4.80;;
42018;SDS011;27703;51.980;5.848;2023-05-10T12:17:45;5.28;;;4.45;;
42018;SDS011;27703;51.980;5.848;2023-05-10T12:20:15;7.72;;;4.15;;
42018;SDS011;27703;51.980;5.848;2023-05-10T12:25:17;4.15;;;3.03;;
42018;SDS011;27703;51.980;5.848;2023-05-10T12:27:48;6.45;;;3.13;;
42018;SDS011;27703;51.980;5.848;2023-05-10T12:32:51;6.90;;;2.95;;
42018;SDS011;27703;51.980;5.848;2023-05-10T12:35:17;4.05;;;2.15;;
42018;SDS011;27703;51.980;5.848;2023-05-10T12:37:48;4.45;;;2.63;;
42018;SDS011;27703;51.980;5.848;2023-05-10T12:40:14;5.07;;;2.30;;
42018;SDS011;27703;51.980;5.848;2023-05-10T12:42:39;4.30;;;2.58;;
42018;SDS011;27703;51.980;5.848;2023-05-10T12:45:06;3.28;;;2.60;;
42018;SDS011;27703;51.980;5.848;2023-05-10T12:47:33;4.68;;;3.17;;
42018;SDS011;27703;51.980;5.848;2023-05-10T12:49:59;6.75;;;3.50;;
42018;SDS011;27703;51.980;5.848;2023-05-10T12:52:26;3.53;;;2.45;;
42018;SDS011;27703;51.980;5.848;2023-05-10T12:54:52;3.45;;;2.60;;
42018;SDS011;27703;51.980;5.848;2023-05-10T12:57:18;3.83;;;2.33;;
42018;SDS011;27703;51.980;5.848;2023-05-10T12:59:45;5.88;;;3.40;;
42018;SDS011;27703;51.980;5.848;2023-05-10T13:02:10;4.88;;;2.55;;
42018;SDS011;27703;51.980;5.848;2023-05-10T13:04:36;4.03;;;2.63;;
42018;SDS011;27703;51.980;5.848;2023-05-10T13:07:05;5.35;;;3.00;;
42018;SDS011;27703;51.980;5.848;2023-05-10T13:09:33;8.57;;;3.13;;
42018;SDS011;27703;51.980;5.848;2023-05-10T13:11:59;6.13;;;4.03;;
42018;SDS011;27703;51.980;5.848;2023-05-10T13:14:25;5.40;;;3.60;;
42018;SDS011;27703;51.980;5.848;2023-05-10T13:16:51;4.97;;;3.63;;
42018;SDS011;27703;51.980;5.848;2023-05-10T13:19:17;5.60;;;3.50;;
42018;SDS011;27703;51.980;5.848;2023-05-10T13:21:42;4.47;;;3.90;;
42018;SDS011;27703;51.980;5.848;2023-05-10T13:24:11;6.13;;;3.58;;
42018;SDS011;27703;51.980;5.848;2023-05-10T13:26:38;4.10;;;2.75;;
42018;SDS011;27703;51.980;5.848;2023-05-10T13:29:05;5.45;;;2.58;;
42018;SDS011;27703;51.980;5.848;2023-05-10T13:31:30;4.15;;;1.95;;
42018;SDS011;27703;51.980;5.848;2023-05-10T13:33:56;4.30;;;2.13;;
42018;SDS011;27703;51.980;5.848;2023-05-10T13:36:21;5.55;;;3.70;;
42018;SDS011;27703;51.980;5.848;2023-05-10T13:38:47;11.60;;;6.55;;
42018;SDS011;27703;51.980;5.848;2023-05-10T13:41:13;10.48;;;7.65;;
42018;SDS011;27703;51.980;5.848;2023-05-10T13:43:39;11.00;;;8.18;;
42018;SDS011;27703;51.980;5.848;2023-05-10T13:46:04;9.35;;;7.57;;
42018;SDS011;27703;51.980;5.848;2023-05-10T13:48:30;9.02;;;8.10;;
42018;SDS011;27703;51.980;5.848;2023-05-10T13:50:56;10.95;;;8.95;;
42018;SDS011;27703;51.980;5.848;2023-05-10T13:53:21;9.05;;;8.15;;
42018;SDS011;27703;51.980;5.848;2023-05-10T13:55:47;10.68;;;8.43;;
42018;SDS011;27703;51.980;5.848;2023-05-10T13:58:13;10.07;;;8.43;;
42018;SDS011;27703;51.980;5.848;2023-05-10T14:00:39;9.23;;;8.32;;
42018;SDS011;27703;51.980;5.848;2023-05-10T14:03:04;8.63;;;7.72;;
42018;SDS011;27703;51.980;5.848;2023-05-10T14:05:31;8.82;;;7.93;;
42018;SDS011;27703;51.980;5.848;2023-05-10T14:07:56;8.68;;;7.88;;
42018;SDS011;27703;51.980;5.848;2023-05-10T14:10:22;9.00;;;8.15;;
42018;SDS011;27703;51.980;5.848;2023-05-10T14:12:47;7.70;;;7.00;;
42018;SDS011;27703;51.980;5.848;2023-05-10T14:15:15;6.38;;;5.78;;
42018;SDS011;27703;51.980;5.848;2023-05-10T14:17:40;7.13;;;6.53;;
42018;SDS011;27703;51.980;5.848;2023-05-10T14:20:06;5.80;;;5.30;;
42018;SDS011;27703;51.980;5.848;2023-05-10T14:22:32;5.68;;;5.20;;
42018;SDS011;27703;51.980;5.848;2023-05-10T14:24:58;4.63;;;4.25;;
42018;SDS011;27703;51.980;5.848;2023-05-10T14:27:23;4.80;;;4.22;;
42018;SDS011;27703;51.980;5.848;2023-05-10T14:29:49;5.35;;;4.85;;
42018;SDS011;27703;51.980;5.848;2023-05-10T14:32:15;4.63;;;4.22;;
42018;SDS011;27703;51.980;5.848;2023-05-10T14:34:40;4.57;;;3.83;;
42018;SDS011;27703;51.980;5.848;2023-05-10T14:37:06;4.53;;;2.33;;
42018;SDS011;27703;51.980;5.848;2023-05-10T14:39:31;2.30;;;1.70;;
42018;SDS011;27703;51.980;5.848;2023-05-10T14:41:58;2.25;;;1.50;;
42018;SDS011;27703;51.980;5.848;2023-05-10T14:44:23;2.42;;;1.33;;
42018;SDS011;27703;51.980;5.848;2023-05-10T14:46:49;3.35;;;1.15;;
42018;SDS011;27703;51.980;5.848;2023-05-10T14:49:14;2.15;;;1.70;;
42018;SDS011;27703;51.980;5.848;2023-05-10T14:51:40;2.58;;;1.27;;
42018;SDS011;27703;51.980;5.848;2023-05-10T14:54:06;1.75;;;1.10;;
42018;SDS011;27703;51.980;5.848;2023-05-10T14:56:31;1.83;;;0.90;;
42018;SDS011;27703;51.980;5.848;2023-05-10T14:58:57;3.00;;;1.40;;
42018;SDS011;27703;51.980;5.848;2023-05-10T15:01:23;1.60;;;0.70;;
42018;SDS011;27703;51.980;5.848;2023-05-10T15:03:49;1.98;;;0.70;;
42018;SDS011;27703;51.980;5.848;2023-05-10T15:06:15;1.48;;;0.73;;